Flight Track Log - Related Links

Times and Time Zones

All times are in EDT time to prevent confusion due to time zone crossing. See the KAP21 flight status page for this flight to view local times or setup timezone preferences in your user account.

Time Position Orientation Groundspeed Altitude Reporting Facility
EDT Latitude Longitude Course Direction KTS MPH feet Rate Location/Type
Sat 12:10:09 PM 42.3667 -71.0167 270° West 116 133 400  Level KA90
Sat 12:10:51 PM 42.3667 -71.0333 270° West 118 136 1,300 1,353 Climbing KA90
Sat 12:11:51 PM 42.3667 -71.0833 270° West 118 136 2,700 1,300 Climbing KA90
Sat 12:12:51 PM 42.3833 -71.1167 304° West 116 133 3,900 1,190 Climbing KA90
Sat 12:13:57 PM 42.4000 -71.1667 294° West 120 138 5,200 1,136 Climbing KA90
Sat 12:15:03 PM 42.4333 -71.2000 324° Northwest 131 151 6,400 906 Climbing KA90
Sat 12:17:09 PM 42.5167 -71.2333 344° North 188 216 8,100 567 Climbing KA90
Sat 12:18:03 PM 42.5667 -71.2500 346° North 195 224 8,100  Level KA90
Sat 12:18:58 PM 42.6167 -71.2833 334° Northwest 207 238 8,100  Level KA90
Sat 12:19:57 PM 42.6667 -71.3000 346° North 207 238 8,100  Level KA90
Sat 12:20:57 PM 42.7167 -71.3167 346° North 201 231 8,100  Level KA90
Sat 12:21:57 PM 42.7667 -71.3667 324° Northwest 194 223 8,100  Level KA90
Sat 12:22:58 PM 42.8167 -71.4167 324° Northwest 193 222 8,100  Level KA90
Sat 12:23:58 PM 42.8500 -71.4667 312° West 193 222 8,100  Level KA90
Sat 12:24:52 PM 42.8833 -71.5000 324° Northwest 194 223 8,100  Level KA90
Sat 12:25:58 PM 42.9333 -71.5500 324° Northwest 195 224 8,100  Level KA90
Sat 12:26:52 PM 42.9667 -71.6000 312° West 194 223 8,100  Level KA90
Sat 12:27:36 PM 43.0039 -71.6281 331° Northwest 208 239 8,100  Level Boston Center
Sat 12:28:36 PM 43.0417 -71.6703 321° Northwest 215 247 8,100  Level Boston Center
Sat 12:29:36 PM 43.0881 -71.7181 323° Northwest 201 231 8,100  Level Boston Center
Sat 12:30:37 PM 43.1258 -71.7575 323° Northwest 191 220 8,100  Level Boston Center
Sat 12:31:36 PM 43.1697 -71.8053 322° Northwest 186 214 8,100  Level Boston Center
Sat 12:32:36 PM 43.2053 -71.8447 321° Northwest 186 214 8,100  Level Boston Center
Sat 12:33:36 PM 43.2494 -71.8928 322° Northwest 186 214 8,100  Level Boston Center
Sat 12:34:36 PM 43.2828 -71.9297 321° Northwest 186 214 8,100 -150 Level Boston Center
Sat 12:35:36 PM 43.3269 -71.9778 322° Northwest 186 214 7,800 -500 Descending Boston Center
Sat 12:36:36 PM 43.3667 -72.0175 324° Northwest 186 214 7,100 -893 Descending Boston Center
Sat 12:37:37 PM 43.4189 -72.0769 320° Northwest 201 231 6,000 -1,082 Descending Boston Center

Login

Don't have an account? Register now (free) for customized features, flight alerts, and more!